KDDC

Dodge City Regional Airport

Airport
ICAO code
KDDC
IATA Code
DDC
Summary
ICAO Region
NAM
ICAO Territory
Location

Dodge City, Kansas

Serving
Dodge City
Elevation
2594 ft
Coordinates
37° 45' 42" N , 99° 57' 50" W
KCC
Airport CFIT
Altimeter Temperature Error Correction
Metar
KDDC 181552Z AUTO 01024G34KT 9SM OVC011 07/02 A3015 RMK AO2 PK WND 36036/1502 SLP201 T00670022 $

Description

Dodge City Regional Airport is a public-use airport located 3 nm east of the central business district of Dodge City, in Ford County, Kansas.

Airport map

Aerial View

SKYbrary Partners:

Safety knowledge contributed by: